createdAt,value
2023-03-22T00:02:03.179Z,100831.19
2023-03-22T00:04:29.664Z,100824.78
2023-03-22T00:06:56.274Z,100811.13
2023-03-22T00:09:22.741Z,100811.97
2023-03-22T00:11:50.972Z,100804.56
2023-03-22T00:14:20.823Z,100807.88
2023-03-22T00:16:49.164Z,100807.63
2023-03-22T00:19:17.286Z,100804.66
2023-03-22T00:21:43.820Z,100801.97
2023-03-22T00:24:10.307Z,100792.88
2023-03-22T00:26:36.759Z,100796.59
2023-03-22T00:29:03.290Z,100794.38
2023-03-22T00:31:30.146Z,100784.81
2023-03-22T00:33:56.670Z,100787.88
2023-03-22T00:36:23.132Z,100777.78
2023-03-22T00:38:51.794Z,100779.06
2023-03-22T00:41:21.030Z,100787.59
2023-03-22T00:43:48.656Z,100767.13
2023-03-22T00:46:17.420Z,100762.75
2023-03-22T00:48:44.329Z,100764.22
2023-03-22T00:51:11.316Z,100769.41
2023-03-22T00:53:41.995Z,100764.44
2023-03-22T00:56:09.743Z,100769.34
2023-03-22T00:58:44.423Z,100763.56
2023-03-22T01:01:14.527Z,100765.63
2023-03-22T01:03:43.236Z,100754.31
2023-03-22T01:06:13.029Z,100754.56
2023-03-22T01:08:40.128Z,100756.41
2023-03-22T01:11:08.607Z,100752.72
2023-03-22T01:13:41.519Z,100742.97
2023-03-22T01:16:09.560Z,100742.97
2023-03-22T01:18:36.661Z,100731.53
2023-03-22T01:21:03.631Z,100732.56
2023-03-22T01:23:31.027Z,100721.44
2023-03-22T01:25:57.930Z,100723.66
2023-03-22T01:28:26.986Z,100716.34
2023-03-22T01:30:54.711Z,100714.69
2023-03-22T01:33:21.201Z,100715.97
2023-03-22T01:35:47.731Z,100712.91
2023-03-22T01:38:14.707Z,100710.22
2023-03-22T01:40:49.790Z,100700.75
2023-03-22T01:43:17.326Z,100693.06
2023-03-22T01:45:52.047Z,100689.78
2023-03-22T01:48:37.548Z,100680.25
2023-03-22T01:51:04.723Z,100683.53
2023-03-22T01:53:41.589Z,100676.28
2023-03-22T01:56:09.397Z,100677.16
2023-03-22T01:58:37.946Z,100675.06
2023-03-22T02:01:09.449Z,100671.81
2023-03-22T02:03:49.788Z,100658.38
2023-03-22T02:06:18.407Z,100658.19
2023-03-22T02:08:49.767Z,100654.47
2023-03-22T02:11:29.048Z,100649.72
2023-03-22T02:14:00.659Z,100651.59
2023-03-22T02:17:24.869Z,100632.53
2023-03-22T02:20:32.324Z,100629.38
2023-03-22T02:23:32.812Z,100627.91
2023-03-22T02:26:24.078Z,100621.31
2023-03-22T02:28:50.750Z,100621.97
2023-03-22T02:31:46.723Z,100618.63
2023-03-22T02:34:34.911Z,100618.63
2023-03-22T02:37:23.052Z,100611.97
2023-03-22T02:40:28.925Z,100611.97
2023-03-22T02:43:38.375Z,100605.56
2023-03-22T02:46:08.576Z,100598.53
2023-03-22T02:48:50.653Z,100596.69
2023-03-22T02:51:22.975Z,100586.31
2023-03-22T02:53:58.649Z,100595.84
2023-03-22T02:56:44.533Z,100588.63
2023-03-22T02:59:12.490Z,100593.38
2023-03-22T03:01:43.989Z,100588.19
2023-03-22T03:04:17.042Z,100592.34
2023-03-22T03:06:47.063Z,100588.13
2023-03-22T03:09:17.994Z,100586.91
2023-03-22T03:11:50.512Z,100581.34
2023-03-22T03:14:26.646Z,100581.16
2023-03-22T03:17:22.561Z,100576.16
2023-03-22T03:20:17.685Z,100575.31
2023-03-22T03:23:05.479Z,100572.59
2023-03-22T03:25:43.169Z,100572.34
2023-03-22T03:28:39.018Z,100572.53
2023-03-22T03:31:27.001Z,100565.50
2023-03-22T03:34:07.918Z,100563.28
2023-03-22T03:36:39.090Z,100558.31
2023-03-22T03:39:11.998Z,100557.47
2023-03-22T03:41:40.183Z,100560.13
2023-03-22T03:44:07.056Z,100558.72
2023-03-22T03:46:33.483Z,100553.78
2023-03-22T03:49:02.632Z,100556.22
2023-03-22T03:51:29.508Z,100556.41
2023-03-22T03:53:55.961Z,100554.09
2023-03-22T03:56:22.951Z,100558.28
2023-03-22T03:58:50.574Z,100554.63
2023-03-22T04:01:19.592Z,100555.06
2023-03-22T04:04:14.008Z,100559.03
2023-03-22T04:06:45.935Z,100558.00
2023-03-22T04:09:17.441Z,100557.31
2023-03-22T04:11:48.495Z,100552.75
2023-03-22T04:14:15.947Z,100552.75
2023-03-22T04:16:42.531Z,100556.28
2023-03-22T04:19:12.888Z,100550.47
2023-03-22T04:21:39.904Z,100543.47
2023-03-22T04:24:07.570Z,100542.91
2023-03-22T04:26:37.270Z,100548.06
2023-03-22T04:29:22.994Z,100538.97
2023-03-22T04:31:54.224Z,100542.31
2023-03-22T04:34:34.329Z,100535.53
2023-03-22T04:37:03.049Z,100528.28
2023-03-22T04:39:31.564Z,100529.31
2023-03-22T04:42:14.444Z,100524.13
2023-03-22T04:44:40.997Z,100524.13
2023-03-22T04:47:07.680Z,100521.03
2023-03-22T04:49:34.900Z,100518.97
2023-03-22T04:52:01.517Z,100521.03
2023-03-22T04:54:50.966Z,100511.78
2023-03-22T04:57:17.706Z,100512.59
2023-03-22T04:59:47.074Z,100503.50
2023-03-22T05:02:14.093Z,100501.63
2023-03-22T05:04:42.975Z,100500.16
2023-03-22T05:07:22.623Z,100499.38
2023-03-22T05:09:53.543Z,100496.91
2023-03-22T05:12:19.998Z,100505.16
2023-03-22T05:14:50.241Z,100502.47
2023-03-22T05:17:22.110Z,100496.06
2023-03-22T05:19:51.856Z,100490.50
2023-03-22T05:22:19.222Z,100490.28
2023-03-22T05:24:48.711Z,100490.69
2023-03-22T05:27:30.890Z,100493.53
2023-03-22T05:30:04.475Z,100494.56
2023-03-22T05:32:45.798Z,100489.78
2023-03-22T05:35:12.835Z,100481.28
2023-03-22T05:37:42.880Z,100476.78
2023-03-22T05:40:09.986Z,100474.31
2023-03-22T05:42:40.600Z,100467.28
2023-03-22T05:45:21.855Z,100466.69
2023-03-22T05:47:57.530Z,100481.78
2023-03-22T05:50:25.243Z,100466.84
2023-03-22T05:52:52.448Z,100464.13
2023-03-22T05:55:44.814Z,100461.88
2023-03-22T05:58:11.756Z,100464.56
2023-03-22T06:00:40.202Z,100462.47
2023-03-22T06:03:45.099Z,100457.09
2023-03-22T06:06:23.871Z,100459.19
2023-03-22T06:09:15.983Z,100461.03
2023-03-22T06:11:44.356Z,100463.13
2023-03-22T06:14:11.310Z,100469.34
2023-03-22T06:16:53.486Z,100468.78
2023-03-22T06:19:20.010Z,100475.59
2023-03-22T06:21:46.668Z,100474.16
2023-03-22T06:24:15.737Z,100478.28
2023-03-22T06:26:42.149Z,100470.22
2023-03-22T06:29:08.664Z,100463.81
2023-03-22T06:31:35.757Z,100468.34
2023-03-22T06:34:05.783Z,100468.84
2023-03-22T06:36:39.646Z,100471.53
2023-03-22T06:39:10.910Z,100476.25
2023-03-22T06:41:37.834Z,100457.25
2023-03-22T06:44:04.346Z,100463.50
2023-03-22T06:46:49.696Z,100456.00
2023-03-22T06:49:27.920Z,100454.41
2023-03-22T06:51:55.045Z,100474.66
2023-03-22T06:54:21.542Z,100463.41
2023-03-22T06:56:48.051Z,100458.09
2023-03-22T06:59:14.503Z,100455.84
2023-03-22T07:01:41.356Z,100470.09
2023-03-22T07:04:10.528Z,100465.94
2023-03-22T07:06:37.623Z,100459.13
2023-03-22T07:09:04.600Z,100468.66
2023-03-22T07:11:34.136Z,100466.16
2023-03-22T07:14:02.570Z,100466.97
2023-03-22T07:16:49.928Z,100456.50
2023-03-22T07:19:18.459Z,100451.97
2023-03-22T07:21:45.050Z,100443.69
2023-03-22T07:24:13.600Z,100452.63
2023-03-22T07:26:41.114Z,100446.25
2023-03-22T07:29:09.476Z,100449.56
2023-03-22T07:31:37.899Z,100447.69
2023-03-22T07:34:07.496Z,100452.81
2023-03-22T07:36:45.738Z,100457.19
2023-03-22T07:39:13.050Z,100450.81
2023-03-22T07:41:43.955Z,100433.81
2023-03-22T07:44:23.341Z,100443.91
2023-03-22T07:47:40.428Z,100442.47
2023-03-22T07:50:14.629Z,100440.03
2023-03-22T07:52:45.467Z,100455.59
2023-03-22T07:55:13.812Z,100453.66
2023-03-22T07:57:40.860Z,100451.19
2023-03-22T08:00:10.424Z,100469.38
2023-03-22T08:02:45.689Z,100457.78
2023-03-22T08:05:22.584Z,100455.31
2023-03-22T08:07:56.822Z,100455.28
2023-03-22T08:10:23.639Z,100457.97
2023-03-22T08:12:50.816Z,100455.28
2023-03-22T08:15:22.751Z,100450.13
2023-03-22T08:17:49.845Z,100459.03
2023-03-22T08:20:27.586Z,100447.69
2023-03-22T08:22:56.764Z,100455.75
2023-03-22T08:25:26.038Z,100455.72
2023-03-22T08:27:55.908Z,100444.56
2023-03-22T08:30:24.876Z,100454.94
2023-03-22T08:32:53.283Z,100458.91
2023-03-22T08:35:20.617Z,100454.16
2023-03-22T08:37:47.198Z,100453.28
2023-03-22T08:40:15.168Z,100446.94
2023-03-22T08:42:46.331Z,100460.38
2023-03-22T08:45:13.201Z,100461.56
2023-03-22T08:47:46.936Z,100451.16
2023-03-22T08:50:13.727Z,100458.13
2023-03-22T08:52:48.286Z,100463.13
2023-03-22T08:55:36.086Z,100461.22
2023-03-22T08:58:16.483Z,100445.91
2023-03-22T09:01:02.149Z,100450.88
2023-03-22T09:03:41.343Z,100445.31
2023-03-22T09:06:08.681Z,100447.56
2023-03-22T09:08:38.204Z,100434.09
2023-03-22T09:11:10.997Z,100444.69
2023-03-22T09:13:37.791Z,100439.69
2023-03-22T09:16:06.452Z,100444.41
2023-03-22T09:18:33.244Z,100440.09
2023-03-22T09:21:03.280Z,100442.78
2023-03-22T09:23:37.807Z,100453.53
2023-03-22T09:26:07.944Z,100459.94
2023-03-22T09:28:36.182Z,100457.66
2023-03-22T09:31:09.967Z,100452.47
2023-03-22T09:33:38.845Z,100426.59
2023-03-22T09:36:05.625Z,100439.47
2023-03-22T09:38:33.847Z,100440.09
2023-03-22T09:41:22.523Z,100447.94
2023-03-22T09:44:00.609Z,100443.97
2023-03-22T09:46:31.890Z,100444.22
2023-03-22T09:49:03.226Z,100447.13
2023-03-22T09:51:34.117Z,100442.22
2023-03-22T09:54:00.548Z,100437.44
2023-03-22T09:56:31.660Z,100447.00
2023-03-22T09:59:27.893Z,100446.78
2023-03-22T10:02:21.813Z,100447.38
2023-03-22T10:05:31.548Z,100442.00
2023-03-22T10:08:19.853Z,100443.81
2023-03-22T10:10:46.689Z,100430.81
2023-03-22T10:13:35.875Z,100454.03
2023-03-22T10:16:06.061Z,100444.47
2023-03-22T10:18:37.529Z,100451.94
2023-03-22T10:21:10.138Z,100444.47
2023-03-22T10:24:15.287Z,100448.84
2023-03-22T10:26:46.531Z,100458.75
2023-03-22T10:29:38.065Z,100451.72
2023-03-22T10:32:10.707Z,100446.56
2023-03-22T10:34:37.125Z,100441.78
2023-03-22T10:37:07.175Z,100442.00
2023-03-22T10:39:39.811Z,100433.97
2023-03-22T10:42:13.258Z,100425.91
2023-03-22T10:44:54.349Z,100423.00
2023-03-22T10:47:31.284Z,100431.47
2023-03-22T10:50:03.553Z,100416.19
2023-03-22T10:52:30.073Z,100413.16
2023-03-22T10:55:02.322Z,100426.78
2023-03-22T10:57:30.303Z,100424.16
2023-03-22T10:59:57.130Z,100430.56
2023-03-22T11:02:29.333Z,100424.75
2023-03-22T11:05:02.061Z,100436.34
2023-03-22T11:07:42.776Z,100421.88
2023-03-22T11:10:09.102Z,100408.00
2023-03-22T11:12:40.102Z,100417.75
2023-03-22T11:15:18.673Z,100420.03
2023-03-22T11:17:45.517Z,100428.94
2023-03-22T11:20:17.088Z,100439.28
2023-03-22T11:22:45.441Z,100443.22
2023-03-22T11:25:26.347Z,100437.00
2023-03-22T11:28:04.716Z,100458.72
2023-03-22T11:30:32.776Z,100461.22
2023-03-22T11:33:00.708Z,100469.06
2023-03-22T11:35:29.958Z,100462.41
2023-03-22T11:37:56.578Z,100475.25
2023-03-22T11:40:29.189Z,100471.31
2023-03-22T11:43:07.119Z,100475.25
2023-03-22T11:45:37.612Z,100467.38
2023-03-22T11:48:14.354Z,100476.31
2023-03-22T11:50:43.520Z,100471.75
2023-03-22T11:53:16.589Z,100458.94
2023-03-22T11:55:43.886Z,100460.38
2023-03-22T11:58:24.128Z,100467.22
2023-03-22T12:00:53.200Z,100460.81
2023-03-22T12:03:26.225Z,100460.41
2023-03-22T12:05:53.524Z,100455.47
2023-03-22T12:08:25.939Z,100462.09
2023-03-22T12:11:01.706Z,100464.59
2023-03-22T12:14:05.027Z,100465.00
2023-03-22T12:17:13.960Z,100459.44
2023-03-22T12:19:48.563Z,100464.56
2023-03-22T12:22:27.426Z,100458.97
2023-03-22T12:24:53.849Z,100458.38
2023-03-22T12:27:28.847Z,100460.44
2023-03-22T12:30:04.288Z,100440.16
2023-03-22T12:32:38.607Z,100449.69
2023-03-22T12:35:17.640Z,100450.53
2023-03-22T12:37:51.513Z,100440.16
2023-03-22T12:40:38.798Z,100440.56
2023-03-22T12:43:24.612Z,100432.91
2023-03-22T12:45:58.416Z,100421.94
2023-03-22T12:48:31.946Z,100435.19
2023-03-22T12:51:04.626Z,100438.91
2023-03-22T12:53:36.089Z,100447.84
2023-03-22T12:56:03.161Z,100442.63
2023-03-22T12:58:29.659Z,100448.88
2023-03-22T13:01:12.408Z,100452.59
2023-03-22T13:03:46.331Z,100456.75
2023-03-22T13:06:32.627Z,100458.59
2023-03-22T13:09:34.567Z,100450.09
2023-03-22T13:12:19.032Z,100448.22
2023-03-22T13:15:20.566Z,100459.25
2023-03-22T13:17:49.332Z,100445.97
2023-03-22T13:20:19.889Z,100442.03
2023-03-22T13:22:49.293Z,100459.66
2023-03-22T13:25:19.305Z,100443.28
2023-03-22T13:27:45.926Z,100449.28
2023-03-22T13:30:26.020Z,100447.66
2023-03-22T13:33:11.011Z,100440.19
2023-03-22T13:35:51.126Z,100444.97
2023-03-22T13:38:36.999Z,100440.41
2023-03-22T13:41:20.525Z,100439.81
2023-03-22T13:43:54.359Z,100439.16
2023-03-22T13:46:20.865Z,100445.19
2023-03-22T13:48:47.451Z,100429.84
2023-03-22T13:51:22.993Z,100432.31
2023-03-22T13:54:11.469Z,100435.25
2023-03-22T13:56:41.061Z,100421.78
2023-03-22T13:59:24.274Z,100423.19
2023-03-22T14:01:57.422Z,100422.78
2023-03-22T14:04:34.761Z,100424.44
2023-03-22T14:07:20.271Z,100421.97
2023-03-22T14:09:51.564Z,100419.47
2023-03-22T14:12:24.178Z,100410.97
2023-03-22T14:14:56.153Z,100407.03
2023-03-22T14:17:50.616Z,100409.97
2023-03-22T14:20:20.738Z,100392.56
